Council, Virginia
Current Conditions -  °F | °C
As of 6:55 AM on Monday 24 Nov 2014 (Local Time) from KJFZ Reporting Station
Clear Clear  
Wind Chill: 60°   Ceiling: Unl
Heat Index: 60°   Visibility: 10mi
Dew Point: 48°   Wind: 14mph
Humidity: 65%   Direction: 210°SSW
Pressure: 29.64"   Gusts: 20mph
Location:  37.0328°N, 82.0042°W
Report Text: KJFZ 241155Z AUTO 21012G17KT 10SM CLR 15/09 A2964 RMK AO2 70054 T01530087 10165 20148
Loading
Personal Weather Stations






























Interactive Weather Map New forecast layout! Learn more

10-Day Weather Forecast

Advertisements
Track Severe Weather on mobile